Humberborg — PHFC — position and weather

sailwx.info

Track history (hours):
 
Tides and Currents Weather Stations Pressure Air Temp Water Temp Dewpoint Dewpoint Depression Visibility Wind Speed Wind Dir Waves Ship Positions

Humberborg

Last reported at 2014-Jul-22 01:24 UTC. Time now 2014-Jul-23 05:17 UTC.
Position N 59°02' E 020°30'.

Length 114 m; draft 6.5 m.

Type: Cargo ship. MMSI: 246012000.

Date/timePositionNaut miles runAvg speedWind from/ knotsBaromVisibWave heightAir tempDewpointWater temp
2014-Jul-22 01:24N 59°02' E 020°30'1411.2
2014-Jul-22 00:09N 58°48' E 020°37'1810.7
2014-Jul-21 22:27N 58°31' E 020°47'1010.9
2014-Jul-21 21:33N 58°21' E 020°52'1110.8
2014-Jul-21 20:33N 58°11' E 020°58'510.9
2014-Jul-21 20:06N 58°06' E 021°00'610.6
2014-Jul-21 19:33N 58°01' E 021°03'2210.8
2014-Jul-21 17:33N 57°40' E 021°15'16 0.6
2014-Jul-20 13:26N 57°24' E 021°15'1211.7
2014-Jul-20 12:25N 57°20' E 020°55'1211.8
2014-Jul-20 11:26N 57°15' E 020°35'3711.9
2014-Jul-20 08:20N 57°01' E 019°32'1011.9
2014-Jul-20 07:31N 56°58' E 019°15'1112.0
2014-Jul-20 06:33N 56°53' E 018°56'1312.1
2014-Jul-20 05:30N 56°49' E 018°34'1112.0
2014-Jul-20 04:33N 56°42' E 018°17'1212.1
2014-Jul-20 03:33N 56°35' E 017°60'1212.3
2014-Jul-20 02:33N 56°27' E 017°42'1212.2
2014-Jul-20 01:33N 56°20' E 017°24'1212.0
2014-Jul-20 00:33N 56°13' E 017°07'1211.9
2014-Jul-19 23:33N 56°05' E 016°51'1211.8
2014-Jul-19 22:33N 55°59' E 016°33'1211.9
2014-Jul-19 21:33N 55°53' E 016°14'1211.9
2014-Jul-19 20:33N 55°47' E 015°56'1211.8
2014-Jul-19 19:33N 55°41' E 015°38'1211.8
2014-Jul-19 18:33N 55°36' E 015°19'1212.0
2014-Jul-19 17:33N 55°30' E 015°01'1212.1
2014-Jul-19 16:33N 55°24' E 014°42'1211.7
2014-Jul-19 15:33N 55°15' E 014°29'1110.8
2014-Jul-19 14:33N 55°07' E 014°17'1211.9
2014-Jul-19 13:33N 54°60' E 014°00'1212.0
2014-Jul-19 12:33N 54°56' E 013°41'1211.9
2014-Jul-19 11:33N 54°52' E 013°21'1211.6
2014-Jul-19 10:33N 54°48' E 013°02'1211.6
2014-Jul-19 09:33N 54°44' E 012°43'1211.7
2014-Jul-19 08:33N 54°38' E 012°26'1111.3
2014-Jul-19 07:33N 54°29' E 012°15'1010.3
2014-Jul-19 06:33N 54°25' E 011°58'1111.4
2014-Jul-19 05:33N 54°27' E 011°39'1211.8
2014-Jul-19 04:33N 54°32' E 011°21'1110.9
2014-Jul-19 03:33N 54°35' E 011°03'1211.6
2014-Jul-19 02:33N 54°34' E 010°43'1211.7
2014-Jul-19 01:32N 54°31' E 010°23'1010.5
2014-Jul-19 00:33N 54°23' E 010°12'4 3.5
2014-Jul-18 23:25N 54°22' E 010°05'22 7.0
2014-Jul-18 20:18N 54°12' E 009°32'7 9.1
2014-Jul-18 19:31N 54°09' E 009°21'10 8.8
2014-Jul-18 18:24N 53°59' E 009°17'7 8.3
2014-Jul-18 17:32N 53°54' E 009°09'1 1.3
2014-Jul-18 16:33N 53°53' E 009°07'4 4.3
2014-Jul-18 15:34N 53°51' E 009°00'1312.8
2014-Jul-18 14:33N 53°55' E 008°40'1414.3
2014-Jul-18 13:33N 53°59' E 008°16'12 5.9
2014-Jul-18 11:33N 53°50' E 008°03'1110.9
2014-Jul-18 10:33N 53°43' E 008°17'1313.4
2014-Jul-18 09:33N 53°34' E 008°33'1111.4
2014-Jul-18 08:33N 53°22' E 008°30'1211.5
2014-Jul-18 07:32N 53°11' E 008°33'7 6.8
2014-Jul-18 06:33N 53°07' E 008°43'0 0.5
2014-Jul-18 05:33N 53°08' E 008°43'0 0.0
2014-Jul-18 04:33N 53°08' E 008°43'0 0.0
2014-Jul-18 03:33N 53°08' E 008°43'0 0.0
2014-Jul-18 02:34N 53°08' E 008°43'0 0.0
2014-Jul-18 01:34N 53°08' E 008°43'0 0.0
2014-Jul-18 00:33N 53°08' E 008°43'0 0.0
2014-Jul-17 23:33N 53°08' E 008°43'0 0.0
2014-Jul-17 22:33N 53°08' E 008°43'0 0.0
2014-Jul-17 21:33N 53°08' E 008°43'0 0.0
2014-Jul-17 20:33N 53°08' E 008°43'0 0.0
2014-Jul-17 19:33N 53°08' E 008°43'0 0.0
2014-Jul-17 18:33N 53°08' E 008°43'0 0.0
2014-Jul-17 17:33N 53°08' E 008°43'0 0.0
2014-Jul-17 16:33N 53°08' E 008°43'0 0.0
2014-Jul-17 15:33N 53°08' E 008°43'0 0.0
2014-Jul-17 14:33N 53°08' E 008°43'0 0.0
2014-Jul-17 13:33N 53°08' E 008°43'0 0.0
2014-Jul-17 12:34N 53°08' E 008°43'0 0.1
2014-Jul-17 11:33N 53°08' E 008°43'0 0.0
2014-Jul-17 10:33N 53°08' E 008°43'0 0.0
2014-Jul-17 09:34N 53°08' E 008°43'0 0.0
2014-Jul-17 08:32N 53°08' E 008°43'0 0.0
2014-Jul-17 07:29N 53°08' E 008°43'0 0.0
2014-Jul-17 06:32N 53°08' E 008°43'0 0.0
2014-Jul-17 05:32N 53°08' E 008°43'0 0.0
2014-Jul-17 04:31N 53°08' E 008°43'0 0.0
2014-Jul-17 03:31N 53°08' E 008°43'0 0.0
2014-Jul-17 02:31N 53°08' E 008°43'0 0.0
2014-Jul-17 01:32N 53°08' E 008°43'0 0.0
2014-Jul-17 00:32N 53°08' E 008°43'0 0.0
2014-Jul-16 23:34N 53°08' E 008°43'0 0.0
2014-Jul-16 22:33N 53°08' E 008°43'0 0.0
2014-Jul-16 21:33N 53°08' E 008°43'0 0.0
2014-Jul-16 20:33N 53°08' E 008°43'0 0.0
2014-Jul-16 19:34N 53°08' E 008°43'0 0.0
2014-Jul-16 18:33N 53°08' E 008°43'0 0.4
2014-Jul-16 17:33N 53°07' E 008°43'4 3.6
2014-Jul-16 16:33N 53°09' E 008°38'8 8.2
2014-Jul-16 15:33N 53°16' E 008°29'1110.9
2014-Jul-16 14:33N 53°27' E 008°29'9 9.0
2014-Jul-16 13:33N 53°36' E 008°31'1010.4
2014-Jul-16 12:33N 53°43' E 008°18'1111.4
2014-Jul-16 11:33N 53°50' E 008°03'8 2.0
2014-Jul-16 07:31N 53°55' E 007°52'0 0.0
2014-Jul-16 06:25N 53°55' E 007°52'0 0.0
2014-Jul-16 05:31N 53°55' E 007°52'0 0.0
2014-Jul-15 19:22N 53°55' E 007°52'0 0.1
2014-Jul-15 18:34N 53°55' E 007°52'0 0.0
2014-Jul-15 17:31N 53°55' E 007°52'0 0.0
2014-Jul-15 16:33N 53°55' E 007°52'0 0.0
2014-Jul-15 06:33N 53°55' E 007°52'0 0.1
2014-Jul-15 05:30N 53°55' E 007°52'0 0.0
2014-Jul-15 04:33N 53°55' E 007°52'0 0.1
2014-Jul-15 01:03N 53°55' E 007°52'0 0.0
2014-Jul-14 17:33N 53°55' E 007°52'0 0.1
2014-Jul-14 16:15N 53°55' E 007°52'0 0.0
2014-Jul-14 15:21N 53°55' E 007°52'0 0.0
2014-Jul-14 05:27N 53°55' E 007°52'0 0.1
2014-Jul-14 04:29N 53°55' E 007°52'0 0.0
2014-Jul-14 03:29N 53°55' E 007°52'0 0.0
2014-Jul-14 02:32N 53°55' E 007°52'0 0.0
2014-Jul-13 17:26N 53°55' E 007°52'0 0.1
2014-Jul-13 16:20N 53°55' E 007°52'0 0.0
2014-Jul-13 15:32N 53°55' E 007°52'0 0.0
2014-Jul-13 14:32N 53°55' E 007°52'0 0.1
2014-Jul-13 13:32N 53°55' E 007°52'0 0.1
2014-Jul-13 12:26N 53°55' E 007°52'0 0.0
2014-Jul-13 06:32N 53°55' E 007°52'0 0.1
2014-Jul-13 05:32N 53°55' E 007°52'0 0.1
2014-Jul-13 04:32N 53°55' E 007°52'0 0.0
2014-Jul-13 03:32N 53°55' E 007°52'0 0.0
2014-Jul-13 02:32N 53°55' E 007°52'0 0.0
2014-Jul-12 17:32N 53°55' E 007°52'0 0.0
2014-Jul-12 13:28N 53°55' E 007°52'5 5.3
2014-Jul-12 12:33N 53°55' E 007°44'1110.1
2014-Jul-12 11:27N 53°53' E 007°25'3310.9
2014-Jul-12 08:24N 53°45' E 006°30'2111.6
2014-Jul-12 06:33N 53°39' E 005°56'1211.7
2014-Jul-12 05:33N 53°35' E 005°37'1211.8
2014-Jul-12 04:33N 53°32' E 005°18'1211.6
2014-Jul-12 03:33N 53°28' E 005°00'1111.1
2014-Jul-12 02:33N 53°23' E 004°43'1110.7
2014-Jul-12 01:33N 53°14' E 004°35'  
Track history (hours):
 
Tides and Currents Weather Stations Pressure Air Temp Water Temp Dewpoint Dewpoint Depression Visibility Wind Speed Wind Dir Waves Ship Positions

Humberborg

Last reported at 2014-Jul-22 01:24 UTC. Time now 2014-Jul-23 05:17 UTC.
Position N 59°02' E 020°30'.

Length 114 m; draft 6.5 m.

Type: Cargo ship. MMSI: 246012000.

Date/timePositionNaut miles runAvg speedWind from/ knotsBaromVisibWave heightAir tempDewpointWater temp
2014-Jul-22 01:24N 59°02' E 020°30'1411.2
2014-Jul-22 00:09N 58°48' E 020°37'1810.7
2014-Jul-21 22:27N 58°31' E 020°47'1010.9
2014-Jul-21 21:33N 58°21' E 020°52'1110.8
2014-Jul-21 20:33N 58°11' E 020°58'510.9
2014-Jul-21 20:06N 58°06' E 021°00'610.6
2014-Jul-21 19:33N 58°01' E 021°03'2210.8
2014-Jul-21 17:33N 57°40' E 021°15'16 0.6
2014-Jul-20 13:26N 57°24' E 021°15'1211.7
2014-Jul-20 12:25N 57°20' E 020°55'1211.8
2014-Jul-20 11:26N 57°15' E 020°35'3711.9
2014-Jul-20 08:20N 57°01' E 019°32'1011.9
2014-Jul-20 07:31N 56°58' E 019°15'1112.0
2014-Jul-20 06:33N 56°53' E 018°56'1312.1
2014-Jul-20 05:30N 56°49' E 018°34'1112.0
2014-Jul-20 04:33N 56°42' E 018°17'1212.1
2014-Jul-20 03:33N 56°35' E 017°60'1212.3
2014-Jul-20 02:33N 56°27' E 017°42'1212.2
2014-Jul-20 01:33N 56°20' E 017°24'1212.0
2014-Jul-20 00:33N 56°13' E 017°07'1211.9
2014-Jul-19 23:33N 56°05' E 016°51'1211.8
2014-Jul-19 22:33N 55°59' E 016°33'1211.9
2014-Jul-19 21:33N 55°53' E 016°14'1211.9
2014-Jul-19 20:33N 55°47' E 015°56'1211.8
2014-Jul-19 19:33N 55°41' E 015°38'1211.8
2014-Jul-19 18:33N 55°36' E 015°19'1212.0
2014-Jul-19 17:33N 55°30' E 015°01'1212.1
2014-Jul-19 16:33N 55°24' E 014°42'1211.7
2014-Jul-19 15:33N 55°15' E 014°29'1110.8
2014-Jul-19 14:33N 55°07' E 014°17'1211.9
2014-Jul-19 13:33N 54°60' E 014°00'1212.0
2014-Jul-19 12:33N 54°56' E 013°41'1211.9
2014-Jul-19 11:33N 54°52' E 013°21'1211.6
2014-Jul-19 10:33N 54°48' E 013°02'1211.6
2014-Jul-19 09:33N 54°44' E 012°43'1211.7
2014-Jul-19 08:33N 54°38' E 012°26'1111.3
2014-Jul-19 07:33N 54°29' E 012°15'1010.3
2014-Jul-19 06:33N 54°25' E 011°58'1111.4
2014-Jul-19 05:33N 54°27' E 011°39'1211.8
2014-Jul-19 04:33N 54°32' E 011°21'1110.9
2014-Jul-19 03:33N 54°35' E 011°03'1211.6
2014-Jul-19 02:33N 54°34' E 010°43'1211.7
2014-Jul-19 01:32N 54°31' E 010°23'1010.5
2014-Jul-19 00:33N 54°23' E 010°12'4 3.5
2014-Jul-18 23:25N 54°22' E 010°05'22 7.0
2014-Jul-18 20:18N 54°12' E 009°32'7 9.1
2014-Jul-18 19:31N 54°09' E 009°21'10 8.8
2014-Jul-18 18:24N 53°59' E 009°17'7 8.3
2014-Jul-18 17:32N 53°54' E 009°09'1 1.3
2014-Jul-18 16:33N 53°53' E 009°07'4 4.3
2014-Jul-18 15:34N 53°51' E 009°00'1312.8
2014-Jul-18 14:33N 53°55' E 008°40'1414.3
2014-Jul-18 13:33N 53°59' E 008°16'12 5.9
2014-Jul-18 11:33N 53°50' E 008°03'1110.9
2014-Jul-18 10:33N 53°43' E 008°17'1313.4
2014-Jul-18 09:33N 53°34' E 008°33'1111.4
2014-Jul-18 08:33N 53°22' E 008°30'1211.5
2014-Jul-18 07:32N 53°11' E 008°33'7 6.8
2014-Jul-18 06:33N 53°07' E 008°43'0 0.5
2014-Jul-18 05:33N 53°08' E 008°43'0 0.0
2014-Jul-18 04:33N 53°08' E 008°43'0 0.0
2014-Jul-18 03:33N 53°08' E 008°43'0 0.0
2014-Jul-18 02:34N 53°08' E 008°43'0 0.0
2014-Jul-18 01:34N 53°08' E 008°43'0 0.0
2014-Jul-18 00:33N 53°08' E 008°43'0 0.0
2014-Jul-17 23:33N 53°08' E 008°43'0 0.0
2014-Jul-17 22:33N 53°08' E 008°43'0 0.0
2014-Jul-17 21:33N 53°08' E 008°43'0 0.0
2014-Jul-17 20:33N 53°08' E 008°43'0 0.0
2014-Jul-17 19:33N 53°08' E 008°43'0 0.0
2014-Jul-17 18:33N 53°08' E 008°43'0 0.0
2014-Jul-17 17:33N 53°08' E 008°43'0 0.0
2014-Jul-17 16:33N 53°08' E 008°43'0 0.0
2014-Jul-17 15:33N 53°08' E 008°43'0 0.0
2014-Jul-17 14:33N 53°08' E 008°43'0 0.0
2014-Jul-17 13:33N 53°08' E 008°43'0 0.0
2014-Jul-17 12:34N 53°08' E 008°43'0 0.1
2014-Jul-17 11:33N 53°08' E 008°43'0 0.0
2014-Jul-17 10:33N 53°08' E 008°43'0 0.0
2014-Jul-17 09:34N 53°08' E 008°43'0 0.0
2014-Jul-17 08:32N 53°08' E 008°43'0 0.0
2014-Jul-17 07:29N 53°08' E 008°43'0 0.0
2014-Jul-17 06:32N 53°08' E 008°43'0 0.0
2014-Jul-17 05:32N 53°08' E 008°43'0 0.0
2014-Jul-17 04:31N 53°08' E 008°43'0 0.0
2014-Jul-17 03:31N 53°08' E 008°43'0 0.0
2014-Jul-17 02:31N 53°08' E 008°43'0 0.0
2014-Jul-17 01:32N 53°08' E 008°43'0 0.0
2014-Jul-17 00:32N 53°08' E 008°43'0 0.0
2014-Jul-16 23:34N 53°08' E 008°43'0 0.0
2014-Jul-16 22:33N 53°08' E 008°43'0 0.0
2014-Jul-16 21:33N 53°08' E 008°43'0 0.0
2014-Jul-16 20:33N 53°08' E 008°43'0 0.0
2014-Jul-16 19:34N 53°08' E 008°43'0 0.0
2014-Jul-16 18:33N 53°08' E 008°43'0 0.4
2014-Jul-16 17:33N 53°07' E 008°43'4 3.6
2014-Jul-16 16:33N 53°09' E 008°38'8 8.2
2014-Jul-16 15:33N 53°16' E 008°29'1110.9
2014-Jul-16 14:33N 53°27' E 008°29'9 9.0
2014-Jul-16 13:33N 53°36' E 008°31'1010.4
2014-Jul-16 12:33N 53°43' E 008°18'1111.4
2014-Jul-16 11:33N 53°50' E 008°03'8 2.0
2014-Jul-16 07:31N 53°55' E 007°52'0 0.0
2014-Jul-16 06:25N 53°55' E 007°52'0 0.0
2014-Jul-16 05:31N 53°55' E 007°52'0 0.0
2014-Jul-15 19:22N 53°55' E 007°52'0 0.1
2014-Jul-15 18:34N 53°55' E 007°52'0 0.0
2014-Jul-15 17:31N 53°55' E 007°52'0 0.0
2014-Jul-15 16:33N 53°55' E 007°52'0 0.0
2014-Jul-15 06:33N 53°55' E 007°52'0 0.1
2014-Jul-15 05:30N 53°55' E 007°52'0 0.0
2014-Jul-15 04:33N 53°55' E 007°52'0 0.1
2014-Jul-15 01:03N 53°55' E 007°52'0 0.0
2014-Jul-14 17:33N 53°55' E 007°52'0 0.1
2014-Jul-14 16:15N 53°55' E 007°52'0 0.0
2014-Jul-14 15:21N 53°55' E 007°52'0 0.0
2014-Jul-14 05:27N 53°55' E 007°52'0 0.1
2014-Jul-14 04:29N 53°55' E 007°52'0 0.0
2014-Jul-14 03:29N 53°55' E 007°52'0 0.0
2014-Jul-14 02:32N 53°55' E 007°52'0 0.0
2014-Jul-13 17:26N 53°55' E 007°52'0 0.1
2014-Jul-13 16:20N 53°55' E 007°52'0 0.0
2014-Jul-13 15:32N 53°55' E 007°52'0 0.0
2014-Jul-13 14:32N 53°55' E 007°52'0 0.1
2014-Jul-13 13:32N 53°55' E 007°52'0 0.1
2014-Jul-13 12:26N 53°55' E 007°52'0 0.0
2014-Jul-13 06:32N 53°55' E 007°52'0 0.1
2014-Jul-13 05:32N 53°55' E 007°52'0 0.1
2014-Jul-13 04:32N 53°55' E 007°52'0 0.0
2014-Jul-13 03:32N 53°55' E 007°52'0 0.0
2014-Jul-13 02:32N 53°55' E 007°52'0 0.0
2014-Jul-12 17:32N 53°55' E 007°52'0 0.0
2014-Jul-12 13:28N 53°55' E 007°52'5 5.3
2014-Jul-12 12:33N 53°55' E 007°44'1110.1
2014-Jul-12 11:27N 53°53' E 007°25'3310.9
2014-Jul-12 08:24N 53°45' E 006°30'2111.6
2014-Jul-12 06:33N 53°39' E 005°56'1211.7
2014-Jul-12 05:33N 53°35' E 005°37'1211.8
2014-Jul-12 04:33N 53°32' E 005°18'1211.6
2014-Jul-12 03:33N 53°28' E 005°00'1111.1
2014-Jul-12 02:33N 53°23' E 004°43'1110.7
2014-Jul-12 01:33N 53°14' E 004°35'  

Dump ship's entire track history